AirNav   TITAN Aviation Fuels
 
 411 users online  

0CD7 Fox Hole Airport
Lafayette, Colorado, USA

GOING TO LAFAYETTE?


FAA INFORMATION EFFECTIVE 22 APRIL 2021

Location

FAA Identifier: 0CD7
Lat/Long: 40-00-17.0000N 105-04-19.0000W
40-00.283333N 105-04.316667W
40.0047222,-105.0719444
(estimated)
Elevation: 5135 ft. / 1565 m (estimated)
From city: 1 mile SW of LAFAYETTE, CO
Time zone: UTC -6 (UTC -7 during Standard Time)
Zip code: 80026

Airport Operations

Airport use: Private use. Permission required prior to landing
Activation date: 05/2006
Control tower: no
ARTCC: DENVER CENTER
FSS: DENVER FLIGHT SERVICE STATION
Attendance: UNATNDD
Wind indicator: yes
Segmented circle: no

Airport Communications

WX AWOS-3 at EIK (1.1 nm E): 133.825 (303-604-4339)
WX AWOS-3 at BJC (6 nm S): PHONE 720-887-8067
WX AWOS-3 at BDU (7 nm W): 118.825 (303-541-9540)
WX AWOS-3 at LMO (10 nm NW): 120.0 (303-684-7545)

Nearby radio navigation aids

VOR radial/distance  VOR name  Freq  Var
BJCr018/6.3JEFFCO VOR/DME115.4011E
DVVr280/21.6MILE HIGH VORTAC114.7008E
DENr293/22.2DENVER VOR/DME117.9008E
FQFr301/28.1FALCON VORTAC116.3011E
GLLr205/38.2GILL VOR/DME114.2013E

Airport Services

Runway Information

Runway 6/24

Dimensions: 956 x 300 ft. / 291 x 91 m
Surface: turf, in good condition
Operational restrictions: LAND RY 24, TKOF RY 06.
RUNWAY 6  RUNWAY 24
Traffic pattern: leftleft
Obstructions: 20 ft. treesnone

Airport Ownership and Management from official FAA records

Ownership: Privately-owned
Owner: NEIL BRESLER
1002 N 119TH STREET
LAFAYETTE, CO 80026
Phone 303-665-3262
Manager: NEIL BRESLER
1002 N 119TH STREET
LAFAYETTE, CO 80026
Phone 303-665-3262

Airport Operational Statistics

Aircraft based on the field: 2
Single engine airplanes: 1
Ultralights: 1
    

Additional Remarks

THIS SITE UNDERLIES THE VFR TFC PATTERN CRITERIA FOR CATEGORY A&B ACFT AT ERIE MUNI ARPT.
FOR CD CTC DENVER APCH AT 303-342-1916.

Instrument Procedures

There are no published instrument procedures at 0CD7.

Some nearby airports with instrument procedures:

KEIK - Erie Municipal Airport (1 nm E)
KBJC - Rocky Mountain Metro Airport (6 nm S)
KLMO - Vance Brand Airport (10 nm NW)
KDEN - Denver International Airport (20 nm SE)
KBKF - Buckley Air Force Base (23 nm SE)
 
Loc | Ops | Rwys | IFR | FBO | Links
Com | Nav | Svcs | Stats | Notes

AirBoss

 
Area around 0CD7 (Fox Hole Airport)
 
Road maps at: MapQuest Bing Google
 
Aerial photo
No photo
 
Sectional chart

 
Airport distance calculator
Flying to Fox Hole Airport? Find the distance to fly.

From to 0CD7

Sunrise and sunset
Times for 16-May-2021
 Local
(UTC-6)
 Zulu
(UTC)
Morning civil twilight05:1411:14
Sunrise05:4511:45
Sunset20:0802:08
Evening civil twilight20:3902:39

Current date and time
Zulu (UTC)  16-May-2021 10:15:59
Local (UTC-6)  16-May-2021 04:15:59
 
METAR
KEIK 160955Z AUTO 00000KT 10SM SCT036 OVC047 10/09 A2998 RMK AO2 T00980088 PWINO
KBJC 
6nm S 
160955Z AUTO 32005KT 10SM BKN027 OVC040 12/10 A3000 RMK AO2
K1V5 
7nm W 
AWOS 118.825 303-541-9540
No observation available
KBDU 
7nm W 
160955Z AUTO 24003KT 10SM SCT036 11/08 A2998 RMK AO2
KLMO 
10nm NW 
160955Z AUTO 00000KT 10SM OVC044 12/10 A3000 RMK AO2 T01180099
TAF
KBJC 
6nm S 
160602Z 1606/1706 29003KT P6SM FEW040 SCT140 FM161200 35005KT P6SM SCT015 TEMPO 1613/1617 3SM BR BKN015 FM161700 03008KT P6SM SCT030 BKN060 FM162100 01012KT P6SM BKN030 OVC060 TEMPO 1622/1702 VRB18G28KT 5SM -TSRA BKN025CB FM170200 28006KT P6SM SCT030 BKN060
NOTAMs
Click for the latest NOTAMs
NOTAMs are issued by the DoD/FAA and will open in a separate window not controlled by AirNav.

 

 
 

Would you like to see your business listed on this page?

 If your business provides an interesting product or service to pilots, flight crews, aircraft, or users of the Fox Hole Airport, you should consider listing it here.  To start the listing process, click on the button below
 
Add a business
 

Other Pages about Fox Hole Airport

Update a link
 
Copyright © AirNav, LLC. All rights reserved. Privacy Policy  Contact